Terminal Aerodrome Forecast
Issued by NWS

Home | Current Version | Previous Version | Text Only | Print | Product List | Glossary On
Versions: 1 2 3 4 5 6 7 8 9 10 11 12 13 14 15 16 17 18 19
904
FTUS44 KEPZ 300527
TAFTCS
TAF
KTCS 300527Z 3006/3106 30007KT P6SM FEW100
     FM301400 VRB04KT P6SM SKC
     FM301900 22015G25KT P6SM FEW250
     FM310300 23010G20KT P6SM FEW250=

USA.gov is the U.S. government's official web portal to all federal, state and local government web resources and services.